sensor_id;sensor_type;location;lat;lon;timestamp;temperature;humidity
34989;DHT22;21192;40.182;44.516;2024-02-16T00:00:07;12.30;91.60
34989;DHT22;21192;40.182;44.516;2024-02-16T00:02:33;12.30;91.60
34989;DHT22;21192;40.182;44.516;2024-02-16T00:04:59;12.40;91.70
34989;DHT22;21192;40.182;44.516;2024-02-16T00:07:25;12.40;91.80
34989;DHT22;21192;40.182;44.516;2024-02-16T00:09:51;12.40;91.90
34989;DHT22;21192;40.182;44.516;2024-02-16T00:12:16;12.40;92.00
34989;DHT22;21192;40.182;44.516;2024-02-16T00:14:43;12.40;92.30
34989;DHT22;21192;40.182;44.516;2024-02-16T00:17:11;12.40;92.70
34989;DHT22;21192;40.182;44.516;2024-02-16T00:19:37;12.40;92.80
34989;DHT22;21192;40.182;44.516;2024-02-16T00:22:03;12.50;92.70
34989;DHT22;21192;40.182;44.516;2024-02-16T00:24:29;12.50;92.70
34989;DHT22;21192;40.182;44.516;2024-02-16T00:26:57;12.50;92.50
34989;DHT22;21192;40.182;44.516;2024-02-16T00:29:23;12.60;92.50
34989;DHT22;21192;40.182;44.516;2024-02-16T00:31:49;12.60;92.60
34989;DHT22;21192;40.182;44.516;2024-02-16T00:34:14;12.60;92.70
34989;DHT22;21192;40.182;44.516;2024-02-16T00:36:40;12.60;92.90
34989;DHT22;21192;40.182;44.516;2024-02-16T00:39:06;12.60;93.10
34989;DHT22;21192;40.182;44.516;2024-02-16T00:41:32;12.60;93.00
34989;DHT22;21192;40.182;44.516;2024-02-16T00:43:58;12.60;93.00
34989;DHT22;21192;40.182;44.516;2024-02-16T00:46:24;12.60;92.70
34989;DHT22;21192;40.182;44.516;2024-02-16T00:48:51;12.60;92.60
34989;DHT22;21192;40.182;44.516;2024-02-16T00:51:18;12.60;92.40
34989;DHT22;21192;40.182;44.516;2024-02-16T00:53:44;12.50;92.20
34989;DHT22;21192;40.182;44.516;2024-02-16T00:56:09;12.50;92.30
34989;DHT22;21192;40.182;44.516;2024-02-16T00:58:39;12.60;92.10
34989;DHT22;21192;40.182;44.516;2024-02-16T01:01:05;12.60;92.00
34989;DHT22;21192;40.182;44.516;2024-02-16T01:03:36;12.60;91.80
34989;DHT22;21192;40.182;44.516;2024-02-16T01:06:04;12.70;91.60
34989;DHT22;21192;40.182;44.516;2024-02-16T01:08:31;12.60;91.20
34989;DHT22;21192;40.182;44.516;2024-02-16T01:10:57;12.60;91.00
34989;DHT22;21192;40.182;44.516;2024-02-16T01:13:23;12.60;91.00
34989;DHT22;21192;40.182;44.516;2024-02-16T01:15:49;12.60;91.00
34989;DHT22;21192;40.182;44.516;2024-02-16T01:18:15;12.60;91.30
34989;DHT22;21192;40.182;44.516;2024-02-16T01:20:41;12.60;91.00
34989;DHT22;21192;40.182;44.516;2024-02-16T01:23:07;12.50;91.40
34989;DHT22;21192;40.182;44.516;2024-02-16T01:25:33;12.50;92.10
34989;DHT22;21192;40.182;44.516;2024-02-16T01:27:59;12.50;92.30
34989;DHT22;21192;40.182;44.516;2024-02-16T01:30:25;12.60;92.30
34989;DHT22;21192;40.182;44.516;2024-02-16T01:32:51;12.60;91.90
34989;DHT22;21192;40.182;44.516;2024-02-16T01:35:17;12.60;91.60
34989;DHT22;21192;40.182;44.516;2024-02-16T01:37:43;12.60;91.50
34989;DHT22;21192;40.182;44.516;2024-02-16T01:40:09;12.50;91.50
34989;DHT22;21192;40.182;44.516;2024-02-16T01:42:44;12.50;91.50
34989;DHT22;21192;40.182;44.516;2024-02-16T01:45:12;12.60;91.40
34989;DHT22;21192;40.182;44.516;2024-02-16T01:47:39;12.60;91.40
34989;DHT22;21192;40.182;44.516;2024-02-16T01:50:09;12.60;91.40
34989;DHT22;21192;40.182;44.516;2024-02-16T01:52:35;12.60;91.20
34989;DHT22;21192;40.182;44.516;2024-02-16T01:55:04;12.60;91.20
34989;DHT22;21192;40.182;44.516;2024-02-16T01:57:31;12.60;91.20
34989;DHT22;21192;40.182;44.516;2024-02-16T01:59:58;12.60;91.10
34989;DHT22;21192;40.182;44.516;2024-02-16T02:02:24;12.60;91.10
34989;DHT22;21192;40.182;44.516;2024-02-16T02:04:50;12.50;91.30
34989;DHT22;21192;40.182;44.516;2024-02-16T02:07:16;12.50;91.60
34989;DHT22;21192;40.182;44.516;2024-02-16T02:09:42;12.40;91.70
34989;DHT22;21192;40.182;44.516;2024-02-16T02:12:09;12.40;91.90
34989;DHT22;21192;40.182;44.516;2024-02-16T02:14:35;12.30;92.10
34989;DHT22;21192;40.182;44.516;2024-02-16T02:17:03;12.40;92.10
34989;DHT22;21192;40.182;44.516;2024-02-16T02:19:31;12.50;91.90
34989;DHT22;21192;40.182;44.516;2024-02-16T02:21:58;12.40;91.90
34989;DHT22;21192;40.182;44.516;2024-02-16T02:24:24;12.50;91.90
34989;DHT22;21192;40.182;44.516;2024-02-16T02:26:49;12.40;91.90
34989;DHT22;21192;40.182;44.516;2024-02-16T02:29:15;12.30;92.00
34989;DHT22;21192;40.182;44.516;2024-02-16T02:31:41;12.30;92.10
34989;DHT22;21192;40.182;44.516;2024-02-16T02:34:07;12.40;92.20
34989;DHT22;21192;40.182;44.516;2024-02-16T02:36:33;12.40;92.20
34989;DHT22;21192;40.182;44.516;2024-02-16T02:38:59;12.40;92.20
34989;DHT22;21192;40.182;44.516;2024-02-16T02:41:25;12.40;92.30
34989;DHT22;21192;40.182;44.516;2024-02-16T02:43:51;12.40;92.30
34989;DHT22;21192;40.182;44.516;2024-02-16T02:46:18;12.40;92.30
34989;DHT22;21192;40.182;44.516;2024-02-16T02:48:45;12.30;92.30
34989;DHT22;21192;40.182;44.516;2024-02-16T02:51:11;12.30;92.20
34989;DHT22;21192;40.182;44.516;2024-02-16T02:53:37;12.30;92.10
34989;DHT22;21192;40.182;44.516;2024-02-16T02:56:04;12.30;92.00
34989;DHT22;21192;40.182;44.516;2024-02-16T02:58:30;12.20;92.00
34989;DHT22;21192;40.182;44.516;2024-02-16T03:00:56;12.20;92.00
34989;DHT22;21192;40.182;44.516;2024-02-16T03:03:22;12.20;92.00
34989;DHT22;21192;40.182;44.516;2024-02-16T03:05:50;12.20;91.90
34989;DHT22;21192;40.182;44.516;2024-02-16T03:08:16;12.10;91.80
34989;DHT22;21192;40.182;44.516;2024-02-16T03:10:41;12.10;91.80
34989;DHT22;21192;40.182;44.516;2024-02-16T03:13:09;12.10;91.90
34989;DHT22;21192;40.182;44.516;2024-02-16T03:15:38;12.10;92.00
34989;DHT22;21192;40.182;44.516;2024-02-16T03:18:05;12.00;92.00
34989;DHT22;21192;40.182;44.516;2024-02-16T03:20:34;12.00;92.10
34989;DHT22;21192;40.182;44.516;2024-02-16T03:23:01;12.00;92.20
34989;DHT22;21192;40.182;44.516;2024-02-16T03:25:27;12.00;92.10
34989;DHT22;21192;40.182;44.516;2024-02-16T03:27:53;11.90;92.20
34989;DHT22;21192;40.182;44.516;2024-02-16T03:30:19;11.80;92.40
34989;DHT22;21192;40.182;44.516;2024-02-16T03:32:51;11.80;92.60
34989;DHT22;21192;40.182;44.516;2024-02-16T03:35:18;11.80;92.80
34989;DHT22;21192;40.182;44.516;2024-02-16T03:37:44;11.70;92.90
34989;DHT22;21192;40.182;44.516;2024-02-16T03:40:11;11.80;93.10
34989;DHT22;21192;40.182;44.516;2024-02-16T03:42:38;11.80;93.30
34989;DHT22;21192;40.182;44.516;2024-02-16T03:45:06;11.70;93.50
34989;DHT22;21192;40.182;44.516;2024-02-16T03:47:32;11.70;93.60
34989;DHT22;21192;40.182;44.516;2024-02-16T03:49:58;11.60;93.80
34989;DHT22;21192;40.182;44.516;2024-02-16T03:52:24;11.70;93.80
34989;DHT22;21192;40.182;44.516;2024-02-16T03:54:51;11.70;93.90
34989;DHT22;21192;40.182;44.516;2024-02-16T03:57:17;11.70;93.90
34989;DHT22;21192;40.182;44.516;2024-02-16T03:59:43;11.80;93.80
34989;DHT22;21192;40.182;44.516;2024-02-16T04:02:10;11.70;93.70
34989;DHT22;21192;40.182;44.516;2024-02-16T04:04:36;11.60;94.00
34989;DHT22;21192;40.182;44.516;2024-02-16T04:07:02;11.50;94.30
34989;DHT22;21192;40.182;44.516;2024-02-16T04:09:28;11.50;94.40
34989;DHT22;21192;40.182;44.516;2024-02-16T04:11:54;11.50;94.40
34989;DHT22;21192;40.182;44.516;2024-02-16T04:14:20;11.60;94.20
34989;DHT22;21192;40.182;44.516;2024-02-16T04:16:46;11.80;94.10
34989;DHT22;21192;40.182;44.516;2024-02-16T04:19:12;11.80;93.90
34989;DHT22;21192;40.182;44.516;2024-02-16T04:21:37;11.90;93.70
34989;DHT22;21192;40.182;44.516;2024-02-16T04:24:03;11.90;93.60
34989;DHT22;21192;40.182;44.516;2024-02-16T04:26:29;11.80;93.50
34989;DHT22;21192;40.182;44.516;2024-02-16T04:28:55;11.80;93.50
34989;DHT22;21192;40.182;44.516;2024-02-16T04:31:21;11.70;93.30
34989;DHT22;21192;40.182;44.516;2024-02-16T04:33:47;11.70;93.50
34989;DHT22;21192;40.182;44.516;2024-02-16T04:36:15;11.70;93.00
34989;DHT22;21192;40.182;44.516;2024-02-16T04:38:41;11.70;92.90
34989;DHT22;21192;40.182;44.516;2024-02-16T04:41:10;11.70;92.70
34989;DHT22;21192;40.182;44.516;2024-02-16T04:43:36;11.80;92.40
34989;DHT22;21192;40.182;44.516;2024-02-16T04:46:03;11.70;92.20
34989;DHT22;21192;40.182;44.516;2024-02-16T04:48:29;11.80;92.00
34989;DHT22;21192;40.182;44.516;2024-02-16T04:50:54;11.80;91.90
34989;DHT22;21192;40.182;44.516;2024-02-16T04:53:20;11.90;91.80
34989;DHT22;21192;40.182;44.516;2024-02-16T04:55:46;11.80;91.60
34989;DHT22;21192;40.182;44.516;2024-02-16T04:58:12;11.90;91.80
34989;DHT22;21192;40.182;44.516;2024-02-16T05:00:38;12.10;91.70
34989;DHT22;21192;40.182;44.516;2024-02-16T05:03:04;12.10;91.70
34989;DHT22;21192;40.182;44.516;2024-02-16T05:05:30;12.20;92.00
34989;DHT22;21192;40.182;44.516;2024-02-16T05:07:59;12.20;92.30
34989;DHT22;21192;40.182;44.516;2024-02-16T05:10:25;12.20;92.60
34989;DHT22;21192;40.182;44.516;2024-02-16T05:12:51;12.10;92.80
34989;DHT22;21192;40.182;44.516;2024-02-16T05:15:17;12.00;93.20
34989;DHT22;21192;40.182;44.516;2024-02-16T05:17:46;12.00;93.30
34989;DHT22;21192;40.182;44.516;2024-02-16T05:20:13;12.20;93.00
34989;DHT22;21192;40.182;44.516;2024-02-16T05:22:47;12.30;92.70
34989;DHT22;21192;40.182;44.516;2024-02-16T05:25:15;12.40;92.50
34989;DHT22;21192;40.182;44.516;2024-02-16T05:27:41;12.50;92.50
34989;DHT22;21192;40.182;44.516;2024-02-16T05:30:10;12.60;92.50
34989;DHT22;21192;40.182;44.516;2024-02-16T05:32:38;12.60;92.50
34989;DHT22;21192;40.182;44.516;2024-02-16T05:35:05;12.50;92.80
34989;DHT22;21192;40.182;44.516;2024-02-16T05:37:46;12.60;92.90
34989;DHT22;21192;40.182;44.516;2024-02-16T05:40:15;12.60;92.90
34989;DHT22;21192;40.182;44.516;2024-02-16T05:42:52;12.70;93.00
34989;DHT22;21192;40.182;44.516;2024-02-16T05:45:19;12.50;93.40
34989;DHT22;21192;40.182;44.516;2024-02-16T05:47:49;12.30;93.70
34989;DHT22;21192;40.182;44.516;2024-02-16T05:50:15;12.30;94.00
34989;DHT22;21192;40.182;44.516;2024-02-16T05:52:42;12.30;94.20
34989;DHT22;21192;40.182;44.516;2024-02-16T05:55:09;12.20;94.40
34989;DHT22;21192;40.182;44.516;2024-02-16T05:57:35;12.10;94.60
34989;DHT22;21192;40.182;44.516;2024-02-16T06:00:02;12.10;94.70
34989;DHT22;21192;40.182;44.516;2024-02-16T06:02:34;12.10;94.90
34989;DHT22;21192;40.182;44.516;2024-02-16T06:05:01;12.10;94.80
34989;DHT22;21192;40.182;44.516;2024-02-16T06:07:28;12.10;94.90
34989;DHT22;21192;40.182;44.516;2024-02-16T06:09:55;12.20;94.80
34989;DHT22;21192;40.182;44.516;2024-02-16T06:12:21;12.30;94.60
34989;DHT22;21192;40.182;44.516;2024-02-16T06:14:47;12.40;94.50
34989;DHT22;21192;40.182;44.516;2024-02-16T06:17:18;12.30;94.90
34989;DHT22;21192;40.182;44.516;2024-02-16T06:19:44;12.40;94.90
34989;DHT22;21192;40.182;44.516;2024-02-16T06:22:10;12.30;95.00
34989;DHT22;21192;40.182;44.516;2024-02-16T06:24:36;12.30;95.20
34989;DHT22;21192;40.182;44.516;2024-02-16T06:27:02;12.30;95.20
34989;DHT22;21192;40.182;44.516;2024-02-16T06:29:29;12.20;95.30
34989;DHT22;21192;40.182;44.516;2024-02-16T06:31:56;12.10;95.50
34989;DHT22;21192;40.182;44.516;2024-02-16T06:34:22;12.10;95.80
34989;DHT22;21192;40.182;44.516;2024-02-16T06:36:48;12.20;95.80
34989;DHT22;21192;40.182;44.516;2024-02-16T06:39:16;12.20;95.90
34989;DHT22;21192;40.182;44.516;2024-02-16T06:41:46;12.30;95.80
34989;DHT22;21192;40.182;44.516;2024-02-16T06:44:13;12.30;96.00
34989;DHT22;21192;40.182;44.516;2024-02-16T06:46:39;12.50;96.00
34989;DHT22;21192;40.182;44.516;2024-02-16T06:49:05;12.70;95.80
34989;DHT22;21192;40.182;44.516;2024-02-16T06:51:31;12.80;95.70
34989;DHT22;21192;40.182;44.516;2024-02-16T06:53:57;13.00;95.50
34989;DHT22;21192;40.182;44.516;2024-02-16T06:56:23;13.20;95.10
34989;DHT22;21192;40.182;44.516;2024-02-16T06:58:49;13.40;94.70
34989;DHT22;21192;40.182;44.516;2024-02-16T07:01:16;13.50;94.30
34989;DHT22;21192;40.182;44.516;2024-02-16T07:03:44;13.50;94.10
34989;DHT22;21192;40.182;44.516;2024-02-16T07:06:10;13.60;94.00
34989;DHT22;21192;40.182;44.516;2024-02-16T07:08:42;13.70;93.80
34989;DHT22;21192;40.182;44.516;2024-02-16T07:11:09;13.80;93.40
34989;DHT22;21192;40.182;44.516;2024-02-16T07:13:42;13.80;93.20
34989;DHT22;21192;40.182;44.516;2024-02-16T07:16:10;14.00;92.70
34989;DHT22;21192;40.182;44.516;2024-02-16T07:18:36;14.10;92.30
34989;DHT22;21192;40.182;44.516;2024-02-16T07:21:03;14.30;91.80
34989;DHT22;21192;40.182;44.516;2024-02-16T07:23:29;14.30;91.70
34989;DHT22;21192;40.182;44.516;2024-02-16T07:25:56;14.30;91.40
34989;DHT22;21192;40.182;44.516;2024-02-16T07:28:23;14.40;91.20
34989;DHT22;21192;40.182;44.516;2024-02-16T07:30:49;14.40;90.70
34989;DHT22;21192;40.182;44.516;2024-02-16T07:33:15;14.60;90.30
34989;DHT22;21192;40.182;44.516;2024-02-16T07:35:41;14.70;90.00
34989;DHT22;21192;40.182;44.516;2024-02-16T07:38:07;14.70;89.60
34989;DHT22;21192;40.182;44.516;2024-02-16T07:40:33;14.80;89.00
34989;DHT22;21192;40.182;44.516;2024-02-16T07:42:59;14.90;88.40
34989;DHT22;21192;40.182;44.516;2024-02-16T07:45:25;15.00;87.70
34989;DHT22;21192;40.182;44.516;2024-02-16T07:47:52;15.00;87.40
34989;DHT22;21192;40.182;44.516;2024-02-16T07:50:23;15.10;87.00
34989;DHT22;21192;40.182;44.516;2024-02-16T07:52:50;15.20;86.40
34989;DHT22;21192;40.182;44.516;2024-02-16T07:55:16;15.30;86.00
34989;DHT22;21192;40.182;44.516;2024-02-16T07:57:46;15.30;85.50
34989;DHT22;21192;40.182;44.516;2024-02-16T08:00:13;15.30;85.70
34989;DHT22;21192;40.182;44.516;2024-02-16T08:02:41;15.40;85.30
34989;DHT22;21192;40.182;44.516;2024-02-16T08:05:11;15.60;84.70
34989;DHT22;21192;40.182;44.516;2024-02-16T08:07:39;15.60;84.00
34989;DHT22;21192;40.182;44.516;2024-02-16T08:10:07;15.60;83.60
34989;DHT22;21192;40.182;44.516;2024-02-16T08:12:34;15.70;83.20
34989;DHT22;21192;40.182;44.516;2024-02-16T08:15:02;15.80;83.20
34989;DHT22;21192;40.182;44.516;2024-02-16T08:17:29;15.90;82.70
34989;DHT22;21192;40.182;44.516;2024-02-16T08:19:56;16.00;82.00
34989;DHT22;21192;40.182;44.516;2024-02-16T08:22:22;16.10;81.50
34989;DHT22;21192;40.182;44.516;2024-02-16T08:24:48;16.30;81.00
34989;DHT22;21192;40.182;44.516;2024-02-16T08:27:16;16.40;80.20
34989;DHT22;21192;40.182;44.516;2024-02-16T08:29:42;16.40;80.10
34989;DHT22;21192;40.182;44.516;2024-02-16T08:32:09;16.30;79.80
34989;DHT22;21192;40.182;44.516;2024-02-16T08:34:35;16.30;80.00
34989;DHT22;21192;40.182;44.516;2024-02-16T08:37:04;16.30;79.70
34989;DHT22;21192;40.182;44.516;2024-02-16T08:39:30;16.50;79.20
34989;DHT22;21192;40.182;44.516;2024-02-16T08:41:57;16.40;78.50
34989;DHT22;21192;40.182;44.516;2024-02-16T08:44:23;16.50;78.00
34989;DHT22;21192;40.182;44.516;2024-02-16T08:46:49;16.40;77.80
34989;DHT22;21192;40.182;44.516;2024-02-16T08:49:16;16.40;77.80
34989;DHT22;21192;40.182;44.516;2024-02-16T08:51:43;16.50;77.40
34989;DHT22;21192;40.182;44.516;2024-02-16T08:54:09;16.40;77.40
34989;DHT22;21192;40.182;44.516;2024-02-16T08:56:35;16.30;77.20
34989;DHT22;21192;40.182;44.516;2024-02-16T08:59:04;16.30;77.10
34989;DHT22;21192;40.182;44.516;2024-02-16T09:01:37;16.20;77.00
34989;DHT22;21192;40.182;44.516;2024-02-16T09:04:03;16.10;77.50
34989;DHT22;21192;40.182;44.516;2024-02-16T09:06:29;16.10;78.20
34989;DHT22;21192;40.182;44.516;2024-02-16T09:08:56;16.10;79.50
34989;DHT22;21192;40.182;44.516;2024-02-16T09:11:22;16.00;80.50
34989;DHT22;21192;40.182;44.516;2024-02-16T09:13:48;15.90;81.20
34989;DHT22;21192;40.182;44.516;2024-02-16T09:16:14;15.80;81.50
34989;DHT22;21192;40.182;44.516;2024-02-16T09:18:40;15.80;81.90
34989;DHT22;21192;40.182;44.516;2024-02-16T09:21:06;15.90;82.00
34989;DHT22;21192;40.182;44.516;2024-02-16T09:23:33;15.90;81.80
34989;DHT22;21192;40.182;44.516;2024-02-16T09:26:00;16.00;82.00
34989;DHT22;21192;40.182;44.516;2024-02-16T09:28:27;15.80;83.40
34989;DHT22;21192;40.182;44.516;2024-02-16T09:30:54;15.40;85.30
34989;DHT22;21192;40.182;44.516;2024-02-16T09:33:21;15.40;86.00
34989;DHT22;21192;40.182;44.516;2024-02-16T09:35:50;15.50;86.30
34989;DHT22;21192;40.182;44.516;2024-02-16T09:38:16;15.40;86.30
34989;DHT22;21192;40.182;44.516;2024-02-16T09:40:43;15.40;86.90
34989;DHT22;21192;40.182;44.516;2024-02-16T09:43:09;15.00;87.90
34989;DHT22;21192;40.182;44.516;2024-02-16T09:45:36;14.80;88.90
34989;DHT22;21192;40.182;44.516;2024-02-16T09:48:04;14.70;89.80
34989;DHT22;21192;40.182;44.516;2024-02-16T09:50:31;14.80;89.80
34989;DHT22;21192;40.182;44.516;2024-02-16T09:52:57;14.90;89.60
34989;DHT22;21192;40.182;44.516;2024-02-16T09:55:24;15.10;89.30
34989;DHT22;21192;40.182;44.516;2024-02-16T09:58:01;15.30;88.80
34989;DHT22;21192;40.182;44.516;2024-02-16T10:00:27;15.30;88.80
34989;DHT22;21192;40.182;44.516;2024-02-16T10:02:53;15.40;88.70
34989;DHT22;21192;40.182;44.516;2024-02-16T10:05:20;15.50;88.10
34989;DHT22;21192;40.182;44.516;2024-02-16T10:07:46;15.60;87.70
34989;DHT22;21192;40.182;44.516;2024-02-16T10:10:29;15.70;87.40
34989;DHT22;21192;40.182;44.516;2024-02-16T10:13:04;15.80;86.90
34989;DHT22;21192;40.182;44.516;2024-02-16T10:15:34;15.90;86.40
34989;DHT22;21192;40.182;44.516;2024-02-16T10:18:01;15.80;86.10
34989;DHT22;21192;40.182;44.516;2024-02-16T10:20:27;15.70;86.10
34989;DHT22;21192;40.182;44.516;2024-02-16T10:23:07;15.70;86.10
34989;DHT22;21192;40.182;44.516;2024-02-16T10:25:40;15.80;85.80
34989;DHT22;21192;40.182;44.516;2024-02-16T10:28:10;15.90;85.50
34989;DHT22;21192;40.182;44.516;2024-02-16T10:30:41;16.00;85.20
34989;DHT22;21192;40.182;44.516;2024-02-16T10:33:11;15.90;85.00
34989;DHT22;21192;40.182;44.516;2024-02-16T10:35:41;16.00;84.70
34989;DHT22;21192;40.182;44.516;2024-02-16T10:38:08;16.00;84.50
34989;DHT22;21192;40.182;44.516;2024-02-16T10:40:39;16.10;84.20
34989;DHT22;21192;40.182;44.516;2024-02-16T10:43:05;16.10;83.90
34989;DHT22;21192;40.182;44.516;2024-02-16T10:45:36;16.20;82.90
34989;DHT22;21192;40.182;44.516;2024-02-16T10:48:06;16.10;82.50
34989;DHT22;21192;40.182;44.516;2024-02-16T10:50:35;16.00;82.70
34989;DHT22;21192;40.182;44.516;2024-02-16T10:53:25;15.70;83.20
34989;DHT22;21192;40.182;44.516;2024-02-16T10:55:52;15.70;83.40
34989;DHT22;21192;40.182;44.516;2024-02-16T10:58:21;15.80;83.80
34989;DHT22;21192;40.182;44.516;2024-02-16T11:00:54;15.90;82.30
34989;DHT22;21192;40.182;44.516;2024-02-16T11:03:24;15.90;81.80
34989;DHT22;21192;40.182;44.516;2024-02-16T11:05:51;15.90;81.60
34989;DHT22;21192;40.182;44.516;2024-02-16T11:08:19;15.70;82.20
34989;DHT22;21192;40.182;44.516;2024-02-16T11:11:01;15.70;82.60
34989;DHT22;21192;40.182;44.516;2024-02-16T11:13:32;15.60;82.00
34989;DHT22;21192;40.182;44.516;2024-02-16T11:16:03;15.40;82.30
34989;DHT22;21192;40.182;44.516;2024-02-16T11:18:30;15.20;82.70
34989;DHT22;21192;40.182;44.516;2024-02-16T11:21:00;15.10;83.90
34989;DHT22;21192;40.182;44.516;2024-02-16T11:23:28;15.00;82.80
34989;DHT22;21192;40.182;44.516;2024-02-16T11:28:28;14.90;84.40
34989;DHT22;21192;40.182;44.516;2024-02-16T11:30:54;14.80;85.60
34989;DHT22;21192;40.182;44.516;2024-02-16T11:33:20;14.80;85.50
34989;DHT22;21192;40.182;44.516;2024-02-16T11:36:06;14.90;85.60
34989;DHT22;21192;40.182;44.516;2024-02-16T11:38:35;14.90;85.40
34989;DHT22;21192;40.182;44.516;2024-02-16T11:41:06;15.00;85.00
34989;DHT22;21192;40.182;44.516;2024-02-16T11:43:33;15.20;84.50
34989;DHT22;21192;40.182;44.516;2024-02-16T11:46:10;15.30;83.80
34989;DHT22;21192;40.182;44.516;2024-02-16T11:48:36;15.30;83.00
34989;DHT22;21192;40.182;44.516;2024-02-16T11:51:03;15.30;82.70
34989;DHT22;21192;40.182;44.516;2024-02-16T11:53:30;15.40;82.70
34989;DHT22;21192;40.182;44.516;2024-02-16T11:55:56;15.50;82.00
34989;DHT22;21192;40.182;44.516;2024-02-16T11:58:23;15.60;81.30
34989;DHT22;21192;40.182;44.516;2024-02-16T12:00:50;15.60;80.80
34989;DHT22;21192;40.182;44.516;2024-02-16T12:03:24;15.70;80.40
34989;DHT22;21192;40.182;44.516;2024-02-16T12:05:54;15.60;80.60
34989;DHT22;21192;40.182;44.516;2024-02-16T12:08:21;15.60;81.60
34989;DHT22;21192;40.182;44.516;2024-02-16T12:10:48;15.40;82.80
34989;DHT22;21192;40.182;44.516;2024-02-16T12:13:20;15.30;83.80
34989;DHT22;21192;40.182;44.516;2024-02-16T12:15:50;15.40;84.20
34989;DHT22;21192;40.182;44.516;2024-02-16T12:18:24;15.30;83.70
34989;DHT22;21192;40.182;44.516;2024-02-16T12:21:01;15.30;83.40
34989;DHT22;21192;40.182;44.516;2024-02-16T12:23:28;15.20;83.30
34989;DHT22;21192;40.182;44.516;2024-02-16T12:25:56;15.20;83.70
34989;DHT22;21192;40.182;44.516;2024-02-16T12:28:29;15.10;84.50
34989;DHT22;21192;40.182;44.516;2024-02-16T12:30:58;15.00;84.90
34989;DHT22;21192;40.182;44.516;2024-02-16T12:33:25;15.00;85.00
34989;DHT22;21192;40.182;44.516;2024-02-16T12:35:51;14.80;85.80
34989;DHT22;21192;40.182;44.516;2024-02-16T12:38:17;14.50;87.00
34989;DHT22;21192;40.182;44.516;2024-02-16T12:40:48;14.40;87.80
34989;DHT22;21192;40.182;44.516;2024-02-16T12:43:14;14.30;88.90
34989;DHT22;21192;40.182;44.516;2024-02-16T12:45:43;14.20;89.60
34989;DHT22;21192;40.182;44.516;2024-02-16T12:48:09;14.10;90.20
34989;DHT22;21192;40.182;44.516;2024-02-16T12:50:40;14.00;90.30
34989;DHT22;21192;40.182;44.516;2024-02-16T12:53:07;14.00;90.20
34989;DHT22;21192;40.182;44.516;2024-02-16T12:55:33;14.00;90.20
34989;DHT22;21192;40.182;44.516;2024-02-16T12:57:59;13.80;90.20
34989;DHT22;21192;40.182;44.516;2024-02-16T13:00:25;13.80;90.10
34989;DHT22;21192;40.182;44.516;2024-02-16T13:02:51;13.70;89.80
34989;DHT22;21192;40.182;44.516;2024-02-16T13:05:17;13.70;89.90
34989;DHT22;21192;40.182;44.516;2024-02-16T13:07:42;13.60;89.90
34989;DHT22;21192;40.182;44.516;2024-02-16T13:10:09;13.60;90.20
34989;DHT22;21192;40.182;44.516;2024-02-16T13:12:35;13.50;90.30
34989;DHT22;21192;40.182;44.516;2024-02-16T13:15:03;13.50;90.30
34989;DHT22;21192;40.182;44.516;2024-02-16T13:17:30;13.50;90.30
34989;DHT22;21192;40.182;44.516;2024-02-16T13:19:56;13.40;90.20
34989;DHT22;21192;40.182;44.516;2024-02-16T13:22:35;13.40;90.40
34989;DHT22;21192;40.182;44.516;2024-02-16T13:25:05;13.50;90.50
34989;DHT22;21192;40.182;44.516;2024-02-16T13:27:32;13.50;90.50
34989;DHT22;21192;40.182;44.516;2024-02-16T13:29:59;13.50;90.30
34989;DHT22;21192;40.182;44.516;2024-02-16T13:32:26;13.50;90.40
34989;DHT22;21192;40.182;44.516;2024-02-16T13:34:52;13.60;90.40
34989;DHT22;21192;40.182;44.516;2024-02-16T13:37:18;13.70;90.40
34989;DHT22;21192;40.182;44.516;2024-02-16T13:39:43;13.70;90.30
34989;DHT22;21192;40.182;44.516;2024-02-16T13:42:10;13.70;90.30
34989;DHT22;21192;40.182;44.516;2024-02-16T13:44:36;13.70;90.00
34989;DHT22;21192;40.182;44.516;2024-02-16T13:47:02;13.60;89.70
34989;DHT22;21192;40.182;44.516;2024-02-16T13:49:28;13.60;89.50
34989;DHT22;21192;40.182;44.516;2024-02-16T13:51:54;13.70;89.50
34989;DHT22;21192;40.182;44.516;2024-02-16T13:54:25;13.70;89.10
34989;DHT22;21192;40.182;44.516;2024-02-16T13:56:50;13.70;88.60
34989;DHT22;21192;40.182;44.516;2024-02-16T13:59:16;13.70;88.30
34989;DHT22;21192;40.182;44.516;2024-02-16T14:01:42;13.70;88.00
34989;DHT22;21192;40.182;44.516;2024-02-16T14:04:09;13.70;87.80
34989;DHT22;21192;40.182;44.516;2024-02-16T14:06:34;13.70;87.50
34989;DHT22;21192;40.182;44.516;2024-02-16T14:09:01;13.60;87.40
34989;DHT22;21192;40.182;44.516;2024-02-16T14:11:35;13.60;87.40
34989;DHT22;21192;40.182;44.516;2024-02-16T14:14:01;13.60;87.40
34989;DHT22;21192;40.182;44.516;2024-02-16T14:16:27;13.60;87.40
34989;DHT22;21192;40.182;44.516;2024-02-16T14:18:53;13.60;87.60
34989;DHT22;21192;40.182;44.516;2024-02-16T14:21:19;13.50;87.80
34989;DHT22;21192;40.182;44.516;2024-02-16T14:23:45;13.50;87.80
34989;DHT22;21192;40.182;44.516;2024-02-16T14:26:11;13.50;87.80
34989;DHT22;21192;40.182;44.516;2024-02-16T14:28:37;13.50;87.80
34989;DHT22;21192;40.182;44.516;2024-02-16T14:31:03;13.60;87.90
34989;DHT22;21192;40.182;44.516;2024-02-16T14:33:29;13.60;88.00
34989;DHT22;21192;40.182;44.516;2024-02-16T14:35:54;13.50;88.20
34989;DHT22;21192;40.182;44.516;2024-02-16T14:38:20;13.50;88.40
34989;DHT22;21192;40.182;44.516;2024-02-16T14:40:47;13.50;88.60
34989;DHT22;21192;40.182;44.516;2024-02-16T14:43:14;13.50;88.70
34989;DHT22;21192;40.182;44.516;2024-02-16T14:45:40;13.60;88.80
34989;DHT22;21192;40.182;44.516;2024-02-16T14:48:06;13.60;88.80
34989;DHT22;21192;40.182;44.516;2024-02-16T14:50:31;13.60;88.90
34989;DHT22;21192;40.182;44.516;2024-02-16T14:52:58;13.60;88.90
34989;DHT22;21192;40.182;44.516;2024-02-16T14:55:23;13.60;88.90
34989;DHT22;21192;40.182;44.516;2024-02-16T14:57:49;13.50;89.00
34989;DHT22;21192;40.182;44.516;2024-02-16T15:00:15;13.40;89.20
34989;DHT22;21192;40.182;44.516;2024-02-16T15:02:42;13.40;89.60
34989;DHT22;21192;40.182;44.516;2024-02-16T15:05:08;13.30;89.70
34989;DHT22;21192;40.182;44.516;2024-02-16T15:07:35;13.30;89.90
34989;DHT22;21192;40.182;44.516;2024-02-16T15:10:01;13.30;90.00
34989;DHT22;21192;40.182;44.516;2024-02-16T15:12:27;13.30;90.00
34989;DHT22;21192;40.182;44.516;2024-02-16T15:14:53;13.20;90.00
34989;DHT22;21192;40.182;44.516;2024-02-16T15:17:19;13.20;89.90